Wednesday, June 20, 2018, 10:41 AM EDT
Back to Local

KIZG, Fryeburg Eastern Slopes Rgnl

Location: Fryeburg, ME, United States Lat: 43.983
Local Time: 10:41 AM EDT (14:41 GMT) Lon: -70.95
Time Zone: US/Eastern Elev: 452 ft

Show me the last for .
Show Coded

Time T Td Feel RH Dir Speed Gust Alt SLP Vis Weather Sky Remarks
2018-06-20 09:54 75 47 - 36 220° 9 - 29.86 29.86 10 CLR None
2018-06-20 08:54 70 53 - 55 Variable 3 - 29.88 29.87 10 CLR None
2018-06-20 07:54 65 51 - 60 - Calm - 29.89 29.89 10 CLR 6-hr Min Temp (8am): 43.0°F
6-hr Max Temp (8am): 64.9°F
2018-06-20 06:54 55 52 - 89 - Calm - 29.89 29.89 10 CLR None
2018-06-20 05:54 46 46 - 100 - Calm - 29.89 29.89 10 CLR None
2018-06-20 05:26 43 43 - 100 - Calm - 29.89 - 3 BR FEW002 None
2018-06-20 05:24 43 43 - 100 - Calm - 29.89 - 1 BR VV002 None
2018-06-20 04:54 44 44 - 100 - Calm - 29.88 29.88 0 FG VV002 None
2018-06-20 04:50 45 45 - 100 - Calm - 29.88 - 0 FG VV002 None
2018-06-20 04:41 45 45 - 100 - Calm - 29.88 - 0 BR VV002 Variable visibility
2018-06-20 04:33 44 44 - 100 - Calm - 29.88 - 1 BR FEW002 Variable visibility
2018-06-20 04:22 45 45 - 100 - Calm - 29.88 - 0 FG VV002 None
2018-06-20 04:15 44 44 - 100 - Calm - 29.88 - 1 BR VV002 Variable visibility
2018-06-20 04:13 44 44 - 100 - Calm - 29.88 - 1 BR FEW002 Variable visibility
2018-06-20 04:09 44 44 - 100 - Calm - 29.88 - 3 BR FEW002 None
2018-06-20 04:02 45 45 - 100 - Calm - 29.88 - 2 BR FEW002 None
2018-06-20 04:00 45 45 - 100 - Calm - 29.88 - 1 BR VV002 None
2018-06-20 03:54 45 45 - 100 - Calm - 29.88 29.88 0 FG VV002 None
2018-06-20 03:51 45 45 - 100 - Calm - 29.88 - 0 FG VV002 None
2018-06-20 03:44 45 45 - 100 - Calm - 29.88 - 0 FG VV002 None
2018-06-20 03:37 45 45 - 100 - Calm - 29.88 - 1 BR FEW002 Variable visibility
2018-06-20 03:30 46 46 - 100 - Calm - 29.88 - 3 BR FEW002 None
2018-06-20 03:28 45 45 - 100 - Calm - 29.88 - 1 BR SCT002 None
2018-06-20 03:08 45 45 - 100 - Calm - 29.88 - 0 BR VV002 Variable visibility
2018-06-20 03:06 45 45 - 100 - Calm - 29.88 - 1 BR FEW002 Variable visibility
2018-06-20 02:54 46 46 - 100 - Calm - 29.88 29.88 8 FEW002 None
2018-06-20 02:38 47 47 - 100 - Calm - 29.88 - 2 BR FEW002 None
2018-06-20 02:36 47 47 - 100 - Calm - 29.88 - 1 BR VV002 None
2018-06-20 02:29 47 47 - 100 - Calm - 29.88 - 0 FG VV002 None
2018-06-20 02:23 47 47 - 100 - Calm - 29.88 - 1 BR FEW002 None
2018-06-20 01:54 47 47 - 100 - Calm - 29.88 29.88 6 BR FEW002 6-hr Min Temp (2am): 46.9°F
6-hr Max Temp (2am): 69.1°F
2018-06-20 01:45 48 48 - 100 - Calm - 29.88 - 3 BR FEW002 None
2018-06-20 01:43 48 48 - 100 - Calm - 29.88 - 1 BR FEW002 None
2018-06-20 01:37 48 48 - 100 - Calm - 29.88 - 0 FG VV002 None
2018-06-20 01:30 49 49 - 100 - Calm - 29.89 - 1 BR VV002 None
2018-06-20 01:28 49 49 - 100 - Calm - 29.89 - 1 BR CLR None
2018-06-20 00:59 49 49 - 100 - Calm - 29.89 - 3 BR CLR None
2018-06-20 00:54 49 49 - 100 - Calm - 29.89 29.89 1 BR FEW002 Variable visibility
24-hr Min Temp (1am): 48.9°F
24-hr Max Temp (1am): 79.0°F
2018-06-20 00:49 48 48 - 100 - Calm - 29.89 - 2 BR FEW002 None
2018-06-19 23:54 53 51 - 92 - Calm - 29.89 29.88 10 CLR None
2018-06-19 22:54 54 52 - 92 - Calm - 29.88 29.88 10 CLR None
2018-06-19 21:54 56 52 - 86 220° 5 - 29.87 29.87 10 CLR None
2018-06-19 20:54 62 52 - 69 - Calm - 29.85 29.85 10 CLR None
2018-06-19 19:54 68 52 - 56 290° 6 - 29.83 29.83 10 CLR 6-hr Min Temp (8pm): 68.0°F
6-hr Max Temp (8pm): 79.0°F
2018-06-19 18:54 74 48 - 39 330° 6 - 29.81 29.80 10 CLR None
2018-06-19 17:54 75 48 - 38 340° 10 17 29.79 29.79 10 CLR None
2018-06-19 16:54 78 48 - 34 330° 8 20 29.78 29.77 10 CLR None
2018-06-19 15:54 77 43 - 29 360° 12 21 29.77 29.77 10 CLR None
2018-06-19 14:54 79 47 - 32 340° 9 18 29.76 29.75 10 CLR None
2018-06-19 13:54 77 45 - 32 310° 10 20 29.76 29.76 10 CLR 6-hr Min Temp (2pm): 68.0°F
6-hr Max Temp (2pm): 77.0°F
2018-06-19 12:54 75 49 - 39 350° 15 23 29.77 29.76 10 CLR None
2018-06-19 11:54 73 51 76 46 10° 16 22 29.78 29.77 10 CLR None
2018-06-19 10:54 72 51 76 47 360° 17 25 29.77 29.77 10 CLR None

Support USWX by starting your Amazon purchase here.